createdAt,value
2019-04-04T00:00:33.357Z,99161
2019-04-04T00:05:56.608Z,99147
2019-04-04T00:11:19.627Z,99127
2019-04-04T00:16:42.843Z,99112
2019-04-04T00:22:06.463Z,99085
2019-04-04T00:27:29.170Z,99085
2019-04-04T00:32:52.745Z,99079
2019-04-04T00:38:14.524Z,99060
2019-04-04T00:43:37.163Z,99060
2019-04-04T00:48:59.819Z,99064
2019-04-04T00:54:23.458Z,99059
2019-04-04T00:59:46.142Z,99047
2019-04-04T01:05:10.370Z,99019
2019-04-04T01:10:33.080Z,98996
2019-04-04T01:15:55.733Z,99021
2019-04-04T01:21:20.142Z,99042
2019-04-04T01:26:41.628Z,99055
2019-04-04T01:32:04.273Z,99070
2019-04-04T01:37:27.187Z,99053
2019-04-04T01:42:49.640Z,99038
2019-04-04T01:48:12.413Z,99014
2019-04-04T01:53:36.114Z,99017
2019-04-04T01:58:59.726Z,99014
2019-04-04T02:04:22.906Z,99040
2019-04-04T02:09:45.039Z,99028
2019-04-04T02:15:07.675Z,99037
2019-04-04T02:20:31.306Z,99018
2019-04-04T02:25:54.310Z,99018
2019-04-04T02:31:20.560Z,99014
2019-04-04T02:36:39.567Z,99017
2019-04-04T02:42:02.204Z,99015
2019-04-04T02:47:24.833Z,99002
2019-04-04T02:52:47.426Z,98982
2019-04-04T02:58:13.720Z,98996
2019-04-04T03:03:33.754Z,98987
2019-04-04T03:08:57.475Z,98975
2019-04-04T03:14:20.603Z,98975
2019-04-04T03:19:44.456Z,98992
2019-04-04T03:25:05.832Z,98995
2019-04-04T03:30:29.469Z,98990
2019-04-04T03:35:52.124Z,99001
2019-04-04T03:41:16.472Z,98995
2019-04-04T03:46:39.850Z,99023
2019-04-04T03:52:02.593Z,99025
2019-04-04T03:57:27.858Z,99020
2019-04-04T04:02:50.938Z,99043
2019-04-04T04:08:14.279Z,99001
2019-04-04T04:13:38.599Z,99010
2019-04-04T04:19:01.249Z,98981
2019-04-04T04:24:23.858Z,98973
2019-04-04T04:29:46.761Z,98982
2019-04-04T04:35:09.511Z,98984
2019-04-04T04:40:32.195Z,98997
2019-04-04T04:45:54.875Z,98993
2019-04-04T04:51:17.530Z,98994
2019-04-04T04:56:40.227Z,98981
2019-04-04T05:02:03.282Z,99001
2019-04-04T05:07:25.942Z,98999
2019-04-04T05:12:48.627Z,98993
2019-04-04T05:18:11.945Z,99005
2019-04-04T05:23:34.981Z,98994
2019-04-04T05:28:58.330Z,98990
2019-04-04T05:34:20.964Z,98994
2019-04-04T05:39:43.745Z,98977
2019-04-04T05:45:07.419Z,98964
2019-04-04T05:50:31.072Z,98962
2019-04-04T05:55:54.467Z,98962
2019-04-04T06:01:17.094Z,98974
2019-04-04T06:06:39.768Z,98975
2019-04-04T06:12:02.479Z,99017
2019-04-04T06:17:26.972Z,99020
2019-04-04T06:22:49.996Z,99014
2019-04-04T06:28:12.899Z,99002
2019-04-04T06:33:35.974Z,99025
2019-04-04T06:38:58.304Z,99016
2019-04-04T06:44:20.948Z,99016
2019-04-04T06:49:45.777Z,99028
2019-04-04T06:55:06.190Z,99026
2019-04-04T07:00:28.825Z,99027
2019-04-04T07:05:52.700Z,99007
2019-04-04T07:11:20.822Z,98949
2019-04-04T07:16:39.049Z,99013
2019-04-04T07:22:01.688Z,98999
2019-04-04T07:27:24.373Z,98996
2019-04-04T07:32:47.155Z,99032
2019-04-04T07:38:09.906Z,99033
2019-04-04T07:43:32.592Z,99050
2019-04-04T07:48:56.484Z,99057
2019-04-04T07:54:19.263Z,99068
2019-04-04T07:59:41.993Z,99080
2019-04-04T08:05:04.649Z,99103
2019-04-04T08:10:27.389Z,99095
2019-04-04T08:15:50.058Z,99104
2019-04-04T08:21:12.773Z,99118
2019-04-04T08:26:35.642Z,99112
2019-04-04T08:31:58.528Z,99099
2019-04-04T08:37:21.229Z,99095
2019-04-04T08:42:43.839Z,99103
2019-04-04T08:48:06.525Z,99103
2019-04-04T08:53:39.132Z,99114
2019-04-04T08:58:52.861Z,99117
2019-04-04T09:04:15.519Z,99118
2019-04-04T09:09:38.233Z,99120
2019-04-04T09:15:00.888Z,99113
2019-04-04T09:20:23.661Z,99125
2019-04-04T09:25:46.774Z,99117
2019-04-04T09:31:09.482Z,99111
2019-04-04T09:36:32.111Z,99099
2019-04-04T09:41:54.761Z,99109
2019-04-04T09:47:17.378Z,99130
2019-04-04T09:52:40.093Z,99131
2019-04-04T09:58:02.756Z,99142
2019-04-04T10:03:25.453Z,99134
2019-04-04T10:08:48.292Z,99134
2019-04-04T10:14:11.062Z,99131
2019-04-04T10:19:33.707Z,99123
2019-04-04T10:24:56.580Z,99109
2019-04-04T10:30:19.291Z,99099
2019-04-04T10:35:41.968Z,99098
2019-04-04T10:41:04.719Z,99096
2019-04-04T10:46:27.975Z,99114
2019-04-04T10:51:50.694Z,99120
2019-04-04T10:57:13.543Z,99111
2019-04-04T11:02:36.250Z,99111
2019-04-04T11:07:58.941Z,99116
2019-04-04T11:13:32.730Z,99110
2019-04-04T11:18:46.184Z,99120
2019-04-04T11:24:09.550Z,99126
2019-04-04T11:29:32.433Z,99120
2019-04-04T11:34:55.322Z,99115
2019-04-04T11:40:18.594Z,99102
2019-04-04T11:45:41.698Z,99085
2019-04-04T11:51:04.519Z,99083
2019-04-04T11:56:27.262Z,99103
2019-04-04T12:01:50.066Z,99122
2019-04-04T12:07:12.836Z,99137
2019-04-04T12:12:35.632Z,99136
2019-04-04T12:17:58.474Z,99127
2019-04-04T12:23:21.235Z,99130
2019-04-04T12:28:43.920Z,99128
2019-04-04T12:34:06.574Z,99131
2019-04-04T12:39:29.250Z,99135
2019-04-04T12:44:51.935Z,99148
2019-04-04T12:50:14.622Z,99147
2019-04-04T12:55:37.307Z,99153
2019-04-04T13:00:59.991Z,99153
2019-04-04T13:06:22.681Z,99150
2019-04-04T13:11:45.389Z,99151
2019-04-04T13:17:08.121Z,99133
2019-04-04T13:22:30.872Z,99124
2019-04-04T13:27:53.614Z,99119
2019-04-04T13:33:16.317Z,99136
2019-04-04T13:38:39.968Z,99140
2019-04-04T13:44:02.647Z,99140
2019-04-04T13:49:25.308Z,99122
2019-04-04T13:54:48.053Z,99131
2019-04-04T14:00:11.652Z,99142
2019-04-04T14:05:34.330Z,99165
2019-04-04T14:10:58.211Z,99192
2019-04-04T14:16:19.701Z,99191
2019-04-04T14:21:42.733Z,99204
2019-04-04T14:27:05.445Z,99214
2019-04-04T14:32:28.071Z,99203
2019-04-04T14:37:50.696Z,99207
2019-04-04T14:43:13.362Z,99219
2019-04-04T14:48:36.016Z,99220
2019-04-04T14:53:59.942Z,99207
2019-04-04T14:59:22.542Z,99191
2019-04-04T15:04:45.167Z,99209
2019-04-04T15:10:07.927Z,99241
2019-04-04T15:15:30.532Z,99227
2019-04-04T15:20:53.165Z,99211
2019-04-04T15:26:15.818Z,99206
2019-04-04T15:31:38.483Z,99220
2019-04-04T15:37:01.124Z,99260
2019-04-04T15:42:23.995Z,99276
2019-04-04T15:47:46.702Z,99276
2019-04-04T15:53:10.327Z,99277
2019-04-04T15:58:32.986Z,99279
2019-04-04T16:03:55.641Z,99276
2019-04-04T16:09:18.532Z,99270
2019-04-04T16:14:41.337Z,99267
2019-04-04T16:20:04.098Z,99284
2019-04-04T16:25:26.880Z,99293
2019-04-04T16:30:49.662Z,99297
2019-04-04T16:36:12.377Z,99305
2019-04-04T16:41:35.105Z,99300
2019-04-04T16:46:57.838Z,99322
2019-04-04T16:52:20.560Z,99304
2019-04-04T16:57:43.719Z,99306
2019-04-04T17:03:06.170Z,99316
2019-04-04T17:08:28.919Z,99338
2019-04-04T17:13:51.578Z,99348
2019-04-04T17:19:14.220Z,99346
2019-04-04T17:24:37.911Z,99352
2019-04-04T17:30:00.541Z,99358
2019-04-04T17:35:23.403Z,99361
2019-04-04T17:40:45.858Z,99352
2019-04-04T17:46:08.521Z,99338
2019-04-04T17:51:31.171Z,99343
2019-04-04T17:56:54.030Z,99328
2019-04-04T18:02:16.684Z,99335
2019-04-04T18:07:39.273Z,99334
2019-04-04T18:13:01.989Z,99334
2019-04-04T18:18:24.972Z,99343
2019-04-04T18:23:48.210Z,99354
2019-04-04T18:29:10.855Z,99357
2019-04-04T18:34:33.670Z,99360
2019-04-04T18:39:56.313Z,99381
2019-04-04T18:45:19.240Z,99391
2019-04-04T18:50:42.046Z,99403
2019-04-04T18:56:05.264Z,99409
2019-04-04T19:01:28.063Z,99425
2019-04-04T19:06:50.691Z,99420
2019-04-04T19:12:13.337Z,99424
2019-04-04T19:17:36.038Z,99424
2019-04-04T19:22:58.708Z,99422
2019-04-04T19:28:21.496Z,99418
2019-04-04T19:33:44.698Z,99427
2019-04-04T19:39:07.891Z,99432
2019-04-04T19:44:30.702Z,99440
2019-04-04T19:49:53.396Z,99443
2019-04-04T19:55:16.241Z,99450
2019-04-04T20:00:39.300Z,99465
2019-04-04T20:06:02.201Z,99477
2019-04-04T20:11:24.911Z,99490
2019-04-04T20:16:48.552Z,99490
2019-04-04T20:22:12.353Z,99487
2019-04-04T20:27:35.256Z,99500
2019-04-04T20:32:57.900Z,99490
2019-04-04T20:38:20.604Z,99497
2019-04-04T20:43:44.413Z,99476
2019-04-04T20:49:07.110Z,99481
2019-04-04T20:54:29.959Z,99476
2019-04-04T20:59:52.530Z,99479
2019-04-04T21:05:15.215Z,99470
2019-04-04T21:10:37.878Z,99489
2019-04-04T21:16:01.419Z,99508
2019-04-04T21:21:24.796Z,99499
2019-04-04T21:26:47.455Z,99503
2019-04-04T21:32:10.196Z,99516
2019-04-04T21:37:32.895Z,99514
2019-04-04T21:42:56.502Z,99534
2019-04-04T21:48:19.141Z,99525
2019-04-04T21:53:41.771Z,99525
2019-04-04T21:59:04.526Z,99530
2019-04-04T22:04:27.185Z,99526
2019-04-04T22:09:49.869Z,99528
2019-04-04T22:15:12.550Z,99526
2019-04-04T22:20:36.414Z,99537
2019-04-04T22:25:59.158Z,99543
2019-04-04T22:31:21.891Z,99539
2019-04-04T22:36:44.666Z,99545
2019-04-04T22:42:07.358Z,99542
2019-04-04T22:47:30.045Z,99538
2019-04-04T22:52:52.750Z,99549
2019-04-04T22:58:27.334Z,99544
2019-04-04T23:03:39.181Z,99546
2019-04-04T23:09:02.222Z,99553
2019-04-04T23:14:25.000Z,99563
2019-04-04T23:19:47.723Z,99571
2019-04-04T23:25:10.364Z,99572
2019-04-04T23:30:33.059Z,99578
2019-04-04T23:35:55.764Z,99575
2019-04-04T23:41:19.065Z,99581
2019-04-04T23:46:41.740Z,99566
2019-04-04T23:52:04.426Z,99560
2019-04-04T23:57:27.153Z,99565
